Fundao, Brazil
Current Conditions -  °F | °C
As of 6:00 AM on Sunday 23 Nov 2014 (Local Time) from SBVT Reporting Station
Broken Clouds Broken Clouds  
Wind Chill: 73°   Ceiling: 3600
Heat Index: 73°   Visibility: 6mi
Dew Point: 68°   Wind: 13mph
Humidity: 83%   Direction: 30°NNE
Pressure: 29.91"   Gusts: NA
Location:  19.93°S, 40.41°W
Report Text: SBVT 230800Z 03011KT 9999 BKN036 23/20 Q1013
Loading
Personal Weather Stations






























Interactive Weather Map New forecast layout! Learn more

10-Day Weather Forecast

Advertisements
Track Severe Weather on mobile